createdAt,value
2023-04-16T00:01:24.213Z,95926.78
2023-04-16T00:03:50.809Z,95929.59
2023-04-16T00:06:17.422Z,95931.53
2023-04-16T00:08:43.905Z,95934.00
2023-04-16T00:11:10.432Z,95933.34
2023-04-16T00:13:37.045Z,95928.63
2023-04-16T00:16:03.434Z,95935.78
2023-04-16T00:18:30.172Z,95929.84
2023-04-16T00:20:56.631Z,95923.22
2023-04-16T00:23:24.949Z,95932.38
2023-04-16T00:25:51.512Z,95929.28
2023-04-16T00:28:17.849Z,95929.00
2023-04-16T00:30:44.285Z,95923.63
2023-04-16T00:33:10.731Z,95927.28
2023-04-16T00:35:37.182Z,95935.56
2023-04-16T00:38:03.600Z,95928.78
2023-04-16T00:40:30.596Z,95934.84
2023-04-16T00:42:56.953Z,95934.00
2023-04-16T00:45:23.362Z,95922.19
2023-04-16T00:47:50.003Z,95915.06
2023-04-16T00:50:17.616Z,95927.00
2023-04-16T00:52:46.259Z,95927.00
2023-04-16T00:55:13.421Z,95925.56
2023-04-16T00:57:39.875Z,95929.59
2023-04-16T01:00:06.924Z,95922.28
2023-04-16T01:02:34.236Z,95925.50
2023-04-16T01:05:01.970Z,95915.66
2023-04-16T01:07:28.477Z,95923.69
2023-04-16T01:09:55.138Z,95919.16
2023-04-16T01:12:21.584Z,95918.69
2023-04-16T01:14:48.293Z,95915.22
2023-04-16T01:17:14.735Z,95913.63
2023-04-16T01:19:41.187Z,95909.53
2023-04-16T01:22:07.602Z,95908.91
2023-04-16T01:24:34.741Z,95911.75
2023-04-16T01:27:01.239Z,95919.31
2023-04-16T01:29:27.693Z,95915.97
2023-04-16T01:31:54.437Z,95905.78
2023-04-16T01:34:20.883Z,95908.34
2023-04-16T01:36:47.248Z,95916.56
2023-04-16T01:39:15.661Z,95905.56
2023-04-16T01:41:42.767Z,95907.19
2023-04-16T01:44:09.238Z,95913.63
2023-04-16T01:46:36.116Z,95907.69
2023-04-16T01:49:02.737Z,95901.19
2023-04-16T01:51:29.121Z,95895.78
2023-04-16T01:53:55.994Z,95900.03
2023-04-16T01:56:22.379Z,95903.03
2023-04-16T01:58:48.834Z,95904.09
2023-04-16T02:01:16.076Z,95893.06
2023-04-16T02:03:42.724Z,95899.88
2023-04-16T02:06:09.465Z,95899.25
2023-04-16T02:08:36.109Z,95895.53
2023-04-16T02:11:02.652Z,95899.38
2023-04-16T02:13:29.000Z,95889.19
2023-04-16T02:15:55.369Z,95889.75
2023-04-16T02:18:21.774Z,95889.94
2023-04-16T02:20:49.522Z,95897.81
2023-04-16T02:23:15.981Z,95889.66
2023-04-16T02:25:43.797Z,95887.25
2023-04-16T02:28:13.356Z,95888.34
2023-04-16T02:30:41.001Z,95886.56
2023-04-16T02:33:09.368Z,95886.41
2023-04-16T02:35:36.038Z,95889.50
2023-04-16T02:38:03.258Z,95888.53
2023-04-16T02:40:30.673Z,95889.44
2023-04-16T02:42:57.179Z,95890.28
2023-04-16T02:45:23.947Z,95890.38
2023-04-16T02:47:50.967Z,95884.53
2023-04-16T02:50:17.711Z,95877.03
2023-04-16T02:52:44.176Z,95878.00
2023-04-16T02:55:11.329Z,95884.94
2023-04-16T02:57:37.734Z,95873.91
2023-04-16T03:00:07.197Z,95888.16
2023-04-16T03:02:33.662Z,95880.34
2023-04-16T03:05:00.215Z,95880.75
2023-04-16T03:07:26.674Z,95878.00
2023-04-16T03:09:53.041Z,95882.88
2023-04-16T03:12:19.404Z,95891.06
2023-04-16T03:14:46.010Z,95891.06
2023-04-16T03:17:12.381Z,95888.69
2023-04-16T03:19:38.740Z,95887.63
2023-04-16T03:22:05.312Z,95895.44
2023-04-16T03:24:32.179Z,95891.09
2023-04-16T03:26:58.889Z,95890.88
2023-04-16T03:29:26.676Z,95897.31
2023-04-16T03:31:53.082Z,95892.91
2023-04-16T03:34:19.523Z,95888.72
2023-04-16T03:36:45.931Z,95902.19
2023-04-16T03:39:12.427Z,95909.38
2023-04-16T03:41:38.781Z,95905.47
2023-04-16T03:44:05.400Z,95893.97
2023-04-16T03:46:31.846Z,95897.41
2023-04-16T03:48:58.249Z,95902.59
2023-04-16T03:51:25.052Z,95906.72
2023-04-16T03:53:51.509Z,95911.84
2023-04-16T03:56:17.929Z,95915.06
2023-04-16T03:58:44.329Z,95915.25
2023-04-16T04:01:10.669Z,95908.38
2023-04-16T04:03:37.348Z,95921.25
2023-04-16T04:06:10.050Z,95911.50
2023-04-16T04:08:36.543Z,95926.81
2023-04-16T04:11:02.978Z,95922.41
2023-04-16T04:13:29.335Z,95910.25
2023-04-16T04:15:55.806Z,95916.00
2023-04-16T04:18:22.251Z,95931.06
2023-04-16T04:20:48.672Z,95927.38
2023-04-16T04:23:15.401Z,95928.06
2023-04-16T04:25:41.821Z,95934.66
2023-04-16T04:28:08.241Z,95941.78
2023-04-16T04:30:35.761Z,95938.66
2023-04-16T04:33:02.365Z,95936.59
2023-04-16T04:35:28.805Z,95941.88
2023-04-16T04:37:55.192Z,95939.94
2023-04-16T04:40:21.558Z,95945.69
2023-04-16T04:42:47.993Z,95949.41
2023-04-16T04:45:14.344Z,95945.28
2023-04-16T04:47:40.869Z,95934.19
2023-04-16T04:50:07.821Z,95949.72
2023-04-16T04:52:34.210Z,95941.03
2023-04-16T04:55:00.618Z,95949.41
2023-04-16T04:57:26.989Z,95942.81
2023-04-16T04:59:53.342Z,95952.63
2023-04-16T05:02:19.828Z,95953.47
2023-04-16T05:04:46.288Z,95949.22
2023-04-16T05:07:12.762Z,95953.97
2023-04-16T05:09:39.133Z,95960.03
2023-04-16T05:12:05.609Z,95965.09
2023-04-16T05:14:31.984Z,95964.78
2023-04-16T05:16:58.435Z,95971.59
2023-04-16T05:19:24.895Z,95958.38
2023-04-16T05:21:51.291Z,95959.16
2023-04-16T05:24:17.838Z,95964.78
2023-04-16T05:26:44.198Z,95970.41
2023-04-16T05:29:10.814Z,95975.13
2023-04-16T05:31:37.416Z,95966.91
2023-04-16T05:34:03.773Z,95970.13
2023-04-16T05:36:30.215Z,95976.97
2023-04-16T05:38:56.576Z,95977.97
2023-04-16T05:41:22.989Z,95972.16
2023-04-16T05:43:49.370Z,95984.88
2023-04-16T05:46:15.764Z,95978.78
2023-04-16T05:48:42.254Z,95985.38
2023-04-16T05:51:08.614Z,95996.88
2023-04-16T05:53:35.047Z,95996.88
2023-04-16T05:56:01.548Z,95986.13
2023-04-16T05:58:27.929Z,95986.63
2023-04-16T06:00:54.496Z,95997.41
2023-04-16T06:03:20.985Z,95989.72
2023-04-16T06:05:47.455Z,95997.03
2023-04-16T06:08:13.871Z,95997.66
2023-04-16T06:10:40.351Z,95988.16
2023-04-16T06:13:06.712Z,95992.22
2023-04-16T06:15:33.087Z,95981.19
2023-04-16T06:18:00.934Z,95987.91
2023-04-16T06:20:27.678Z,95985.66
2023-04-16T06:22:54.110Z,95991.41
2023-04-16T06:25:20.503Z,95983.13
2023-04-16T06:27:46.978Z,95993.09
2023-04-16T06:30:15.544Z,95986.84
2023-04-16T06:32:43.419Z,95987.78
2023-04-16T06:35:10.001Z,95981.69
2023-04-16T06:37:36.360Z,95988.28
2023-04-16T06:40:02.952Z,95992.03
2023-04-16T06:42:29.416Z,95996.72
2023-04-16T06:44:55.817Z,95992.03
2023-04-16T06:47:22.377Z,95988.41
2023-04-16T06:49:48.793Z,95993.38
2023-04-16T06:52:15.288Z,95993.94
2023-04-16T06:54:41.798Z,95986.56
2023-04-16T06:57:08.184Z,95994.69
2023-04-16T06:59:34.605Z,95997.44
2023-04-16T07:02:01.276Z,95991.16
2023-04-16T07:04:27.760Z,95995.78
2023-04-16T07:06:54.206Z,95993.69
2023-04-16T07:09:20.608Z,95989.34
2023-04-16T07:11:47.040Z,95996.91
2023-04-16T07:14:13.461Z,95995.63
2023-04-16T07:16:40.584Z,95993.47
2023-04-16T07:19:07.130Z,95991.75
2023-04-16T07:21:33.578Z,96000.53
2023-04-16T07:23:59.924Z,95994.47
2023-04-16T07:26:26.600Z,95998.56
2023-04-16T07:28:52.970Z,95993.09
2023-04-16T07:31:19.470Z,95992.94
2023-04-16T07:33:46.027Z,95993.91
2023-04-16T07:36:12.435Z,95999.84
2023-04-16T07:38:38.789Z,95991.84
2023-04-16T07:41:05.396Z,95990.94
2023-04-16T07:43:31.744Z,95984.97
2023-04-16T07:45:58.169Z,95995.31
2023-04-16T07:48:24.660Z,95990.31
2023-04-16T07:50:51.110Z,95986.88
2023-04-16T07:53:17.484Z,95987.78
2023-04-16T07:55:43.860Z,95990.78
2023-04-16T07:58:10.300Z,95996.41
2023-04-16T08:00:37.263Z,95996.22
2023-04-16T08:03:03.972Z,95990.56
2023-04-16T08:05:30.497Z,95988.88
2023-04-16T08:07:56.868Z,95986.34
2023-04-16T08:10:23.290Z,95985.72
2023-04-16T08:12:49.708Z,95989.94
2023-04-16T08:15:16.342Z,95995.25
2023-04-16T08:17:42.768Z,95993.69
2023-04-16T08:20:11.955Z,95999.03
2023-04-16T08:22:40.234Z,96004.13
2023-04-16T08:25:07.350Z,96003.72
2023-04-16T08:27:33.718Z,95999.50
2023-04-16T08:30:00.159Z,96001.06
2023-04-16T08:32:30.449Z,96006.69
2023-04-16T08:35:00.405Z,96015.63
2023-04-16T08:37:27.736Z,96007.03
2023-04-16T08:39:54.094Z,96010.81
2023-04-16T08:42:53.131Z,96005.19
2023-04-16T08:45:20.135Z,96010.84
2023-04-16T08:47:48.701Z,96007.09
2023-04-16T08:50:23.989Z,96012.56
2023-04-16T08:53:03.397Z,96009.28
2023-04-16T08:55:41.022Z,96011.31
2023-04-16T08:58:15.373Z,96008.31
2023-04-16T09:00:43.345Z,96004.72
2023-04-16T09:03:12.702Z,96005.03
2023-04-16T09:05:39.732Z,96005.97
2023-04-16T09:08:06.841Z,96003.78
2023-04-16T09:10:33.696Z,95999.97
2023-04-16T09:13:00.214Z,95996.69
2023-04-16T09:15:27.424Z,95991.81
2023-04-16T09:17:54.313Z,95995.88
2023-04-16T09:20:21.068Z,95999.94
2023-04-16T09:22:48.330Z,96001.16
2023-04-16T09:25:15.278Z,96003.78
2023-04-16T09:27:42.424Z,96006.59
2023-04-16T09:30:25.503Z,96016.16
2023-04-16T09:33:11.414Z,96010.34
2023-04-16T09:35:49.000Z,95994.97
2023-04-16T09:38:16.368Z,95998.72
2023-04-16T09:40:43.095Z,96002.16
2023-04-16T09:43:14.359Z,96000.88
2023-04-16T09:45:54.164Z,96002.50
2023-04-16T09:48:31.473Z,96003.75
2023-04-16T09:50:58.857Z,96005.72
2023-04-16T09:53:29.593Z,96009.66
2023-04-16T09:56:00.329Z,96014.25
2023-04-16T09:58:27.616Z,96011.44
2023-04-16T10:01:06.814Z,96010.81
2023-04-16T10:03:35.654Z,96007.69
2023-04-16T10:06:08.615Z,96004.66
2023-04-16T10:08:35.338Z,96008.19
2023-04-16T10:11:02.374Z,96008.47
2023-04-16T10:13:30.956Z,96010.94
2023-04-16T10:15:57.948Z,96008.25
2023-04-16T10:18:24.691Z,96017.00
2023-04-16T10:20:51.747Z,96011.53
2023-04-16T10:23:20.519Z,96000.84
2023-04-16T10:25:48.986Z,96007.59
2023-04-16T10:28:16.476Z,96010.88
2023-04-16T10:30:52.639Z,96015.72
2023-04-16T10:33:21.802Z,96007.13
2023-04-16T10:35:55.033Z,95999.44
2023-04-16T10:38:32.466Z,96008.75
2023-04-16T10:41:06.500Z,96009.66
2023-04-16T10:43:44.636Z,96009.00
2023-04-16T10:46:30.714Z,96002.44
2023-04-16T10:49:01.038Z,96004.50
2023-04-16T10:51:32.773Z,95999.88
2023-04-16T10:54:08.222Z,96008.22
2023-04-16T10:56:36.740Z,96001.13
2023-04-16T10:59:11.206Z,96011.88
2023-04-16T11:01:42.366Z,96006.59
2023-04-16T11:04:25.097Z,96009.44
2023-04-16T11:07:18.835Z,96007.47
2023-04-16T11:09:57.536Z,96005.66
2023-04-16T11:12:41.976Z,96008.78
2023-04-16T11:15:11.100Z,95999.53
2023-04-16T11:17:41.638Z,96002.69
2023-04-16T11:20:19.558Z,96001.19
2023-04-16T11:22:47.372Z,95996.94
2023-04-16T11:25:19.517Z,95997.72
2023-04-16T11:27:45.998Z,96002.16
2023-04-16T11:30:13.498Z,96011.75
2023-04-16T11:32:40.774Z,96000.00
2023-04-16T11:35:19.826Z,95998.06
2023-04-16T11:37:48.406Z,96004.00
2023-04-16T11:40:15.048Z,95990.09
2023-04-16T11:42:42.740Z,95996.09
2023-04-16T11:45:11.233Z,96002.69
2023-04-16T11:47:53.048Z,95996.56
2023-04-16T11:50:29.231Z,95994.72
2023-04-16T11:53:03.002Z,95990.94
2023-04-16T11:55:29.786Z,96001.47
2023-04-16T11:57:56.549Z,95996.78
2023-04-16T12:00:24.745Z,95998.81
2023-04-16T12:02:55.497Z,95998.34
2023-04-16T12:05:32.588Z,95992.22
2023-04-16T12:08:00.729Z,96005.41
2023-04-16T12:10:28.748Z,95999.13
2023-04-16T12:13:09.602Z,96003.69
2023-04-16T12:15:46.951Z,95999.72
2023-04-16T12:18:14.382Z,95992.38
2023-04-16T12:20:42.380Z,95996.13
2023-04-16T12:23:09.482Z,95987.03
2023-04-16T12:25:36.266Z,95990.97
2023-04-16T12:28:03.150Z,95990.31
2023-04-16T12:30:30.882Z,95995.53
2023-04-16T12:33:18.195Z,96006.06
2023-04-16T12:35:44.907Z,95991.81
2023-04-16T12:38:12.068Z,95998.53
2023-04-16T12:40:38.740Z,96002.13
2023-04-16T12:43:05.350Z,95997.78
2023-04-16T12:45:31.796Z,96013.78
2023-04-16T12:47:58.305Z,96006.91
2023-04-16T12:50:24.847Z,96026.72
2023-04-16T12:52:51.605Z,95999.53
2023-04-16T12:55:18.719Z,95992.81
2023-04-16T12:57:45.300Z,96002.69
2023-04-16T13:00:12.540Z,96010.72
2023-04-16T13:02:39.093Z,96013.53
2023-04-16T13:05:06.055Z,96011.59
2023-04-16T13:07:33.960Z,96000.91
2023-04-16T13:10:00.895Z,95989.81
2023-04-16T13:12:28.412Z,96006.50
2023-04-16T13:14:55.873Z,96001.94
2023-04-16T13:17:22.374Z,96003.16
2023-04-16T13:19:48.960Z,95995.94
2023-04-16T13:22:15.390Z,95999.84
2023-04-16T13:24:41.974Z,96001.09
2023-04-16T13:27:08.946Z,95994.31
2023-04-16T13:29:37.960Z,96001.06
2023-04-16T13:32:04.751Z,95997.41
2023-04-16T13:34:31.661Z,96010.13
2023-04-16T13:36:58.023Z,96004.16
2023-04-16T13:39:25.407Z,96019.88
2023-04-16T13:41:51.830Z,95998.22
2023-04-16T13:44:18.221Z,96014.22
2023-04-16T13:46:47.664Z,96029.03
2023-04-16T13:49:14.661Z,96011.78
2023-04-16T13:51:44.599Z,96005.97
2023-04-16T13:54:11.046Z,96013.78
2023-04-16T13:56:37.529Z,96007.00
2023-04-16T13:59:03.955Z,96015.75
2023-04-16T14:01:30.627Z,96007.13
2023-04-16T14:03:57.130Z,96010.50
2023-04-16T14:06:25.992Z,96001.91
2023-04-16T14:08:52.377Z,96018.03
2023-04-16T14:11:18.850Z,96030.94
2023-04-16T14:13:46.461Z,96015.19
2023-04-16T14:16:13.754Z,96008.28
2023-04-16T14:18:42.322Z,96014.81
2023-04-16T14:21:09.252Z,96008.88
2023-04-16T14:23:37.620Z,96012.59
2023-04-16T14:26:08.815Z,96019.69
2023-04-16T14:31:28.527Z,96015.38
2023-04-16T14:33:54.915Z,96022.16
2023-04-16T14:36:21.297Z,96012.59
2023-04-16T14:38:47.762Z,96006.97
2023-04-16T14:41:14.185Z,96016.81
2023-04-16T14:43:41.294Z,96015.97
2023-04-16T14:46:07.773Z,96017.94
2023-04-16T14:48:34.207Z,96009.06
2023-04-16T14:51:00.617Z,96010.50
2023-04-16T14:53:27.122Z,96022.75
2023-04-16T14:55:53.668Z,96018.63
2023-04-16T14:58:20.219Z,96015.19
2023-04-16T15:00:46.705Z,96033.22
2023-04-16T15:03:13.306Z,96010.81
2023-04-16T15:05:39.875Z,96016.22
2023-04-16T15:08:06.370Z,96015.75
2023-04-16T15:10:32.960Z,96024.41
2023-04-16T15:12:59.375Z,96021.56
2023-04-16T15:15:25.775Z,96023.78
2023-04-16T15:17:52.384Z,96024.25
2023-04-16T15:20:18.864Z,96019.00
2023-04-16T15:22:45.402Z,96024.44
2023-04-16T15:25:11.850Z,96032.31
2023-04-16T15:27:38.239Z,96020.72
2023-04-16T15:30:05.155Z,96022.63
2023-04-16T15:32:31.612Z,96030.94
2023-04-16T15:34:58.057Z,96026.72
2023-04-16T15:37:24.439Z,96021.22
2023-04-16T15:39:50.816Z,96018.22
2023-04-16T15:42:17.259Z,96016.03
2023-04-16T15:44:43.636Z,96011.31
2023-04-16T15:47:10.138Z,96026.19
2023-04-16T15:49:36.557Z,96032.06
2023-04-16T15:52:03.348Z,96030.34
2023-04-16T15:54:31.685Z,96015.41
2023-04-16T15:57:01.470Z,96029.69
2023-04-16T15:59:27.896Z,96019.31
2023-04-16T16:01:54.445Z,96029.28
2023-04-16T16:04:22.772Z,96032.53
2023-04-16T16:06:50.359Z,96035.22
2023-04-16T16:09:16.958Z,96036.44
2023-04-16T16:11:43.395Z,96045.56
2023-04-16T16:14:09.792Z,96042.44
2023-04-16T16:16:36.521Z,96048.59
2023-04-16T16:19:03.058Z,96061.47
2023-04-16T16:21:30.326Z,96050.34
2023-04-16T16:23:56.960Z,96055.66
2023-04-16T16:26:23.399Z,96065.44
2023-04-16T16:28:49.824Z,96070.66
2023-04-16T16:31:16.276Z,96067.69
2023-04-16T16:33:42.662Z,96079.28
2023-04-16T16:36:12.495Z,96062.03
2023-04-16T16:38:42.485Z,96067.97
2023-04-16T16:41:08.973Z,96070.19
2023-04-16T16:43:38.992Z,96045.56
2023-04-16T16:46:07.299Z,96073.78
2023-04-16T16:48:33.707Z,96075.84
2023-04-16T16:51:00.533Z,96078.06
2023-04-16T16:53:27.289Z,96081.69
2023-04-16T16:55:53.664Z,96084.03
2023-04-16T16:58:20.645Z,96083.56
2023-04-16T17:00:47.085Z,96095.53
2023-04-16T17:03:13.678Z,96090.19
2023-04-16T17:05:40.608Z,96088.16
2023-04-16T17:08:07.048Z,96096.16
2023-04-16T17:10:33.525Z,96092.22
2023-04-16T17:12:59.919Z,96100.50
2023-04-16T17:15:27.397Z,96099.88
2023-04-16T17:17:53.882Z,96116.53
2023-04-16T17:20:20.673Z,96113.38
2023-04-16T17:22:47.273Z,96119.00
2023-04-16T17:25:13.780Z,96119.16
2023-04-16T17:27:40.217Z,96117.75
2023-04-16T17:30:07.402Z,96123.38
2023-04-16T17:32:33.878Z,96132.00
2023-04-16T17:35:03.824Z,96128.88
2023-04-16T17:37:30.227Z,96129.81
2023-04-16T17:39:56.800Z,96133.25
2023-04-16T17:42:24.511Z,96139.84
2023-04-16T17:44:50.941Z,96148.28
2023-04-16T17:47:17.343Z,96141.41
2023-04-16T17:49:44.342Z,96141.53
2023-04-16T17:52:10.922Z,96150.94
2023-04-16T17:54:37.338Z,96160.03
2023-04-16T17:57:03.820Z,96159.38
2023-04-16T17:59:30.228Z,96156.56
2023-04-16T18:01:56.851Z,96158.44
2023-04-16T18:04:23.579Z,96167.06
2023-04-16T18:06:50.339Z,96168.25
2023-04-16T18:09:16.904Z,96163.41
2023-04-16T18:11:43.463Z,96168.88
2023-04-16T18:14:11.600Z,96173.44
2023-04-16T18:16:38.251Z,96182.81
2023-04-16T18:19:05.492Z,96179.38
2023-04-16T18:21:31.881Z,96190.31
2023-04-16T18:23:58.703Z,96183.88
2023-04-16T18:26:25.377Z,96185.88
2023-04-16T18:28:51.928Z,96190.72
2023-04-16T18:31:21.106Z,96196.03
2023-04-16T18:33:56.376Z,96190.72
2023-04-16T18:36:24.500Z,96212.63
2023-04-16T18:39:00.807Z,96199.81
2023-04-16T18:41:29.428Z,96208.84
2023-04-16T18:43:56.020Z,96213.66
2023-04-16T18:46:22.565Z,96213.66
2023-04-16T18:48:49.058Z,96213.34
2023-04-16T18:51:16.588Z,96219.53
2023-04-16T18:53:45.204Z,96225.47
2023-04-16T18:56:11.694Z,96227.16
2023-04-16T18:58:38.256Z,96228.53
2023-04-16T19:01:06.114Z,96230.44
2023-04-16T19:03:33.267Z,96233.56
2023-04-16T19:06:00.041Z,96232.75
2023-04-16T19:08:27.072Z,96236.25
2023-04-16T19:10:53.449Z,96231.81
2023-04-16T19:13:19.934Z,96247.13
2023-04-16T19:15:46.368Z,96244.91
2023-04-16T19:18:12.798Z,96249.47
2023-04-16T19:20:39.511Z,96246.91
2023-04-16T19:23:08.283Z,96246.44
2023-04-16T19:25:36.338Z,96256.28
2023-04-16T19:28:03.704Z,96252.66
2023-04-16T19:30:30.933Z,96264.09
2023-04-16T19:32:57.853Z,96261.16
2023-04-16T19:35:24.433Z,96254.22
2023-04-16T19:37:51.142Z,96256.41
2023-04-16T19:40:17.717Z,96258.28
2023-04-16T19:42:45.290Z,96272.78
2023-04-16T19:45:11.712Z,96263.53
2023-04-16T19:47:38.275Z,96269.94
2023-04-16T19:50:05.098Z,96266.59
2023-04-16T19:52:37.315Z,96271.03
2023-04-16T19:55:04.170Z,96273.19
2023-04-16T19:57:30.686Z,96280.88
2023-04-16T19:59:57.229Z,96282.44
2023-04-16T20:02:23.781Z,96277.06
2023-04-16T20:04:50.750Z,96279.91
2023-04-16T20:07:17.492Z,96278.03
2023-04-16T20:09:43.934Z,96280.22
2023-04-16T20:12:10.949Z,96273.00
2023-04-16T20:14:38.598Z,96270.66
2023-04-16T20:17:09.515Z,96274.28
2023-04-16T20:19:38.337Z,96270.25
2023-04-16T20:22:05.003Z,96270.03
2023-04-16T20:24:31.661Z,96275.47
2023-04-16T20:26:58.105Z,96273.41
2023-04-16T20:29:24.490Z,96273.41
2023-04-16T20:31:50.849Z,96278.72
2023-04-16T20:34:17.586Z,96280.50
2023-04-16T20:36:44.020Z,96277.94
2023-04-16T20:39:11.101Z,96280.13
2023-04-16T20:41:43.620Z,96276.78
2023-04-16T20:44:10.301Z,96274.72
2023-04-16T20:46:40.131Z,96277.38
2023-04-16T20:49:08.185Z,96282.59
2023-04-16T20:51:35.497Z,96286.44
2023-04-16T20:54:03.089Z,96294.28
2023-04-16T20:56:29.467Z,96289.97
2023-04-16T20:58:55.941Z,96291.53
2023-04-16T21:01:22.312Z,96290.56
2023-04-16T21:03:48.841Z,96289.97
2023-04-16T21:06:17.611Z,96294.00
2023-04-16T21:08:44.418Z,96292.56
2023-04-16T21:11:10.897Z,96297.09
2023-04-16T21:13:37.297Z,96302.78
2023-04-16T21:16:04.942Z,96293.84
2023-04-16T21:18:31.370Z,96292.13
2023-04-16T21:20:58.904Z,96302.41
2023-04-16T21:23:25.455Z,96303.97
2023-04-16T21:25:51.799Z,96306.91
2023-04-16T21:28:18.180Z,96302.59
2023-04-16T21:30:44.692Z,96307.13
2023-04-16T21:33:12.712Z,96303.28
2023-04-16T21:35:39.069Z,96304.56
2023-04-16T21:38:05.634Z,96304.06
2023-04-16T21:40:32.146Z,96307.31
2023-04-16T21:42:58.524Z,96299.34
2023-04-16T21:45:24.892Z,96298.84
2023-04-16T21:47:51.455Z,96295.41
2023-04-16T21:50:18.117Z,96291.97
2023-04-16T21:52:46.682Z,96294.63
2023-04-16T21:55:14.210Z,96295.09
2023-04-16T21:57:40.678Z,96295.81
2023-04-16T22:00:13.655Z,96286.88
2023-04-16T22:02:43.374Z,96296.50
2023-04-16T22:05:11.225Z,96297.59
2023-04-16T22:07:38.349Z,96296.31
2023-04-16T22:10:05.112Z,96304.28
2023-04-16T22:12:31.622Z,96297.28
2023-04-16T22:15:02.698Z,96297.28
2023-04-16T22:17:30.073Z,96295.41
2023-04-16T22:19:57.250Z,96291.19
2023-04-16T22:22:23.641Z,96290.88
2023-04-16T22:24:50.079Z,96303.97
2023-04-16T22:27:16.486Z,96304.66
2023-04-16T22:29:42.859Z,96296.50
2023-04-16T22:32:09.407Z,96305.25
2023-04-16T22:34:36.038Z,96300.63
2023-04-16T22:37:03.045Z,96303.28
2023-04-16T22:39:30.738Z,96305.38
2023-04-16T22:41:57.111Z,96304.88
2023-04-16T22:44:23.500Z,96307.13
2023-04-16T22:46:49.943Z,96311.16
2023-04-16T22:49:16.307Z,96308.84
2023-04-16T22:51:43.360Z,96308.44
2023-04-16T22:54:13.677Z,96303.53
2023-04-16T22:56:40.690Z,96302.75
2023-04-16T22:59:07.184Z,96304.03
2023-04-16T23:01:36.625Z,96303.31
2023-04-16T23:04:03.058Z,96295.44
2023-04-16T23:06:29.475Z,96302.72
2023-04-16T23:08:55.867Z,96295.06
2023-04-16T23:11:22.423Z,96298.78
2023-04-16T23:13:48.911Z,96301.94
2023-04-16T23:16:15.470Z,96299.59
2023-04-16T23:18:41.895Z,96289.72
2023-04-16T23:21:08.331Z,96290.72
2023-04-16T23:23:35.004Z,96288.06
2023-04-16T23:26:02.694Z,96296.03
2023-04-16T23:28:29.151Z,96286.59
2023-04-16T23:30:55.651Z,96286.59
2023-04-16T23:33:22.189Z,96293.38
2023-04-16T23:35:48.553Z,96287.06
2023-04-16T23:38:14.921Z,96278.91
2023-04-16T23:40:41.326Z,96280.47
2023-04-16T23:43:07.716Z,96279.59
2023-04-16T23:45:34.130Z,96282.75
2023-04-16T23:48:00.652Z,96286.00
2023-04-16T23:50:28.896Z,96279.50
2023-04-16T23:52:55.289Z,96273.41
2023-04-16T23:55:21.753Z,96273.09
2023-04-16T23:57:48.301Z,96283.59
